Terminal Aerodrome Forecast
Issued by NWS

Home | Current Version | Previous Version | Text Only | Print | Product List | Glossary On
Versions: 1 2 3 4 5 6 7 8 9 10 11 12 13 14 15 16 17 18 19 20
000
FTUS43 KABR 262300
TAFPIR
TAF
KPIR 262330Z 2700/2724 07009KT P6SM OVC023
     FM271200 11010KT P6SM OVC050
     FM271800 12014KT P6SM OVC100=

USA.gov is the U.S. government's official web portal to all federal, state and local government web resources and services.